sensor_id;sensor_type;location;lat;lon;timestamp;pressure;altitude;pressure_sealevel;temperature;humidity
35647;BME280;28680;45.642;13.756;2023-06-24T00:01:25;101043.47;;;27.55;96.85
35647;BME280;28680;45.642;13.756;2023-06-24T00:03:51;101021.53;;;27.52;96.12
35647;BME280;28680;45.642;13.756;2023-06-24T00:06:22;101011.56;;;27.52;95.77
35647;BME280;28680;45.642;13.756;2023-06-24T00:08:52;101027.72;;;27.52;92.23
35647;BME280;28680;45.642;13.756;2023-06-24T00:11:27;101020.59;;;27.76;100.00
35647;BME280;28680;45.642;13.756;2023-06-24T00:13:53;101015.38;;;27.63;91.25
35647;BME280;28680;45.642;13.756;2023-06-24T00:16:19;101011.59;;;27.83;94.71
35647;BME280;28680;45.642;13.756;2023-06-24T00:18:53;101017.47;;;27.61;91.50
35647;BME280;28680;45.642;13.756;2023-06-24T00:21:19;101010.13;;;27.68;94.78
35647;BME280;28680;45.642;13.756;2023-06-24T00:23:45;101015.38;;;27.63;94.17
35647;BME280;28680;45.642;13.756;2023-06-24T00:26:14;101017.69;;;27.59;89.22
35647;BME280;28680;45.642;13.756;2023-06-24T00:28:42;101014.94;;;27.66;94.29
35647;BME280;28680;45.642;13.756;2023-06-24T00:31:08;101009.53;;;27.66;92.78
35647;BME280;28680;45.642;13.756;2023-06-24T00:33:34;100998.94;;;27.53;92.91
35647;BME280;28680;45.642;13.756;2023-06-24T00:36:02;100989.16;;;27.70;97.36
35647;BME280;28680;45.642;13.756;2023-06-24T00:38:28;101000.44;;;27.30;92.55
35647;BME280;28680;45.642;13.756;2023-06-24T00:40:58;101007.44;;;27.13;97.54
35647;BME280;28680;45.642;13.756;2023-06-24T00:43:24;101007.00;;;27.34;100.00
35647;BME280;28680;45.642;13.756;2023-06-24T00:45:51;101004.38;;;27.28;96.87
35647;BME280;28680;45.642;13.756;2023-06-24T00:48:18;101002.19;;;27.18;97.40
35647;BME280;28680;45.642;13.756;2023-06-24T00:50:45;101019.03;;;27.13;94.31
35647;BME280;28680;45.642;13.756;2023-06-24T00:53:11;101022.81;;;27.31;95.05
35647;BME280;28680;45.642;13.756;2023-06-24T00:55:38;101014.72;;;26.87;97.22
35647;BME280;28680;45.642;13.756;2023-06-24T00:58:04;101039.19;;;27.29;98.73
35647;BME280;28680;45.642;13.756;2023-06-24T01:00:30;101036.97;;;27.26;100.00
35647;BME280;28680;45.642;13.756;2023-06-24T01:02:59;101032.88;;;27.17;94.91
35647;BME280;28680;45.642;13.756;2023-06-24T01:05:26;101044.19;;;27.26;97.35
35647;BME280;28680;45.642;13.756;2023-06-24T01:07:52;101040.38;;;27.33;100.00
35647;BME280;28680;45.642;13.756;2023-06-24T01:10:23;101037.28;;;27.11;93.12
35647;BME280;28680;45.642;13.756;2023-06-24T01:12:49;101038.88;;;27.19;92.42
35647;BME280;28680;45.642;13.756;2023-06-24T01:15:17;101036.00;;;27.14;93.26
35647;BME280;28680;45.642;13.756;2023-06-24T01:32:09;101041.94;;;27.22;87.82
35647;BME280;28680;45.642;13.756;2023-06-24T01:35:07;101044.78;;;27.09;92.42
35647;BME280;28680;45.642;13.756;2023-06-24T01:37:43;101052.59;;;26.92;89.29
35647;BME280;28680;45.642;13.756;2023-06-24T01:40:39;101066.19;;;27.22;90.84
35647;BME280;28680;45.642;13.756;2023-06-24T01:43:09;101064.97;;;27.44;95.61
35647;BME280;28680;45.642;13.756;2023-06-24T01:45:46;101082.81;;;26.94;85.75
35647;BME280;28680;45.642;13.756;2023-06-24T01:48:32;101082.19;;;27.17;92.63
35647;BME280;28680;45.642;13.756;2023-06-24T01:51:06;101099.19;;;26.93;87.05
35647;BME280;28680;45.642;13.756;2023-06-24T01:53:38;101100.50;;;27.09;87.41
35647;BME280;28680;45.642;13.756;2023-06-24T01:56:12;101098.94;;;26.69;88.63
35647;BME280;28680;45.642;13.756;2023-06-24T01:58:41;101113.06;;;26.64;88.54
35647;BME280;28680;45.642;13.756;2023-06-24T02:01:08;101124.91;;;26.57;87.14
35647;BME280;28680;45.642;13.756;2023-06-24T02:03:34;101143.97;;;26.87;85.89
35647;BME280;28680;45.642;13.756;2023-06-24T02:06:02;101150.06;;;26.76;86.66
35647;BME280;28680;45.642;13.756;2023-06-24T02:08:33;101147.56;;;27.06;88.22
35647;BME280;28680;45.642;13.756;2023-06-24T02:11:01;101151.06;;;27.07;86.49
35647;BME280;28680;45.642;13.756;2023-06-24T02:13:30;101161.00;;;27.13;87.86
35647;BME280;28680;45.642;13.756;2023-06-24T02:16:00;101155.81;;;27.11;84.70
35647;BME280;28680;45.642;13.756;2023-06-24T02:18:27;101151.75;;;26.70;85.94
35647;BME280;28680;45.642;13.756;2023-06-24T02:20:55;101152.97;;;26.74;87.29
35647;BME280;28680;45.642;13.756;2023-06-24T02:23:22;101147.38;;;26.76;89.67
35647;BME280;28680;45.642;13.756;2023-06-24T02:25:49;101160.81;;;27.08;89.87
35647;BME280;28680;45.642;13.756;2023-06-24T02:28:17;101161.66;;;26.76;91.97
35647;BME280;28680;45.642;13.756;2023-06-24T02:30:44;101170.66;;;26.57;92.27
35647;BME280;28680;45.642;13.756;2023-06-24T02:33:10;101169.53;;;26.78;90.78
35647;BME280;28680;45.642;13.756;2023-06-24T02:35:38;101167.00;;;26.83;92.95
35647;BME280;28680;45.642;13.756;2023-06-24T02:38:07;101170.34;;;26.78;90.31
35647;BME280;28680;45.642;13.756;2023-06-24T02:40:33;101183.19;;;26.76;93.43
35647;BME280;28680;45.642;13.756;2023-06-24T02:43:00;101168.44;;;26.47;94.91
35647;BME280;28680;45.642;13.756;2023-06-24T02:45:26;101166.63;;;26.79;90.97
35647;BME280;28680;45.642;13.756;2023-06-24T02:47:53;101161.06;;;26.74;91.16
35647;BME280;28680;45.642;13.756;2023-06-24T02:50:22;101165.84;;;26.72;88.63
35647;BME280;28680;45.642;13.756;2023-06-24T02:52:49;101160.50;;;26.66;89.49
35647;BME280;28680;45.642;13.756;2023-06-24T02:55:15;101174.38;;;26.56;89.28
35647;BME280;28680;45.642;13.756;2023-06-24T02:57:42;101188.31;;;26.46;94.92
35647;BME280;28680;45.642;13.756;2023-06-24T03:00:08;101158.44;;;26.93;93.17
35647;BME280;28680;45.642;13.756;2023-06-24T03:02:38;101159.06;;;26.63;90.63
35647;BME280;28680;45.642;13.756;2023-06-24T03:05:06;101169.41;;;26.98;92.27
35647;BME280;28680;45.642;13.756;2023-06-24T03:07:34;101176.91;;;26.51;96.55
35647;BME280;28680;45.642;13.756;2023-06-24T03:10:03;101194.75;;;26.45;92.89
35647;BME280;28680;45.642;13.756;2023-06-24T03:12:32;101187.03;;;26.55;93.65
35647;BME280;28680;45.642;13.756;2023-06-24T03:14:58;101207.59;;;26.36;92.20
35647;BME280;28680;45.642;13.756;2023-06-24T03:17:24;101211.88;;;26.64;95.33
35647;BME280;28680;45.642;13.756;2023-06-24T03:19:50;101220.19;;;26.42;93.23
35647;BME280;28680;45.642;13.756;2023-06-24T03:22:16;101225.97;;;26.53;97.23
35647;BME280;28680;45.642;13.756;2023-06-24T03:24:43;101241.44;;;26.05;95.22
35647;BME280;28680;45.642;13.756;2023-06-24T03:27:09;101225.28;;;26.19;100.00
35647;BME280;28680;45.642;13.756;2023-06-24T03:29:36;101235.91;;;25.60;98.55
35647;BME280;28680;45.642;13.756;2023-06-24T03:32:02;101230.28;;;26.02;97.14
35647;BME280;28680;45.642;13.756;2023-06-24T03:34:29;101241.28;;;25.94;98.53
35647;BME280;28680;45.642;13.756;2023-06-24T03:36:56;101241.41;;;26.12;97.40
35647;BME280;28680;45.642;13.756;2023-06-24T03:39:22;101236.84;;;26.26;98.64
35647;BME280;28680;45.642;13.756;2023-06-24T03:41:48;101245.38;;;25.76;100.00
35647;BME280;28680;45.642;13.756;2023-06-24T03:44:15;101259.44;;;25.78;100.00
35647;BME280;28680;45.642;13.756;2023-06-24T03:46:40;101252.66;;;25.96;100.00
35647;BME280;28680;45.642;13.756;2023-06-24T03:49:06;101239.56;;;26.13;100.00
35647;BME280;28680;45.642;13.756;2023-06-24T03:51:33;101244.53;;;25.89;100.00
35647;BME280;28680;45.642;13.756;2023-06-24T03:53:59;101241.66;;;25.91;100.00
35647;BME280;28680;45.642;13.756;2023-06-24T03:56:25;101261.66;;;26.21;100.00
35647;BME280;28680;45.642;13.756;2023-06-24T03:58:50;101257.38;;;25.87;100.00
35647;BME280;28680;45.642;13.756;2023-06-24T04:01:16;101254.44;;;26.22;100.00
35647;BME280;28680;45.642;13.756;2023-06-24T04:03:45;101251.94;;;26.27;100.00
35647;BME280;28680;45.642;13.756;2023-06-24T04:06:11;101259.63;;;26.17;100.00
35647;BME280;28680;45.642;13.756;2023-06-24T04:08:38;101264.97;;;26.30;100.00
35647;BME280;28680;45.642;13.756;2023-06-24T04:11:05;101260.34;;;26.44;100.00
35647;BME280;28680;45.642;13.756;2023-06-24T04:13:33;101269.28;;;26.38;100.00
35647;BME280;28680;45.642;13.756;2023-06-24T04:15:58;101273.13;;;25.77;100.00
35647;BME280;28680;45.642;13.756;2023-06-24T04:18:24;101282.63;;;25.79;100.00
35647;BME280;28680;45.642;13.756;2023-06-24T04:20:50;101299.94;;;26.30;100.00
35647;BME280;28680;45.642;13.756;2023-06-24T04:23:16;101301.41;;;25.73;100.00
35647;BME280;28680;45.642;13.756;2023-06-24T04:25:42;101307.03;;;26.11;100.00
35647;BME280;28680;45.642;13.756;2023-06-24T04:28:09;101298.31;;;25.49;100.00
35647;BME280;28680;45.642;13.756;2023-06-24T04:30:35;101309.72;;;25.58;100.00
35647;BME280;28680;45.642;13.756;2023-06-24T04:33:01;101305.56;;;25.95;100.00
35647;BME280;28680;45.642;13.756;2023-06-24T04:35:28;101302.88;;;26.15;100.00
35647;BME280;28680;45.642;13.756;2023-06-24T04:37:54;101323.97;;;25.78;100.00
35647;BME280;28680;45.642;13.756;2023-06-24T04:40:20;101323.78;;;25.60;100.00
35647;BME280;28680;45.642;13.756;2023-06-24T04:42:46;101314.25;;;25.91;100.00
35647;BME280;28680;45.642;13.756;2023-06-24T04:45:12;101336.59;;;25.84;100.00
35647;BME280;28680;45.642;13.756;2023-06-24T04:47:38;101337.44;;;25.92;100.00
35647;BME280;28680;45.642;13.756;2023-06-24T04:50:05;101340.09;;;25.78;100.00
35647;BME280;28680;45.642;13.756;2023-06-24T04:52:31;101350.22;;;25.56;100.00
35647;BME280;28680;45.642;13.756;2023-06-24T04:54:56;101357.03;;;25.45;100.00
35647;BME280;28680;45.642;13.756;2023-06-24T04:57:31;101347.78;;;26.15;100.00
35647;BME280;28680;45.642;13.756;2023-06-24T04:59:58;101352.69;;;26.31;100.00
35647;BME280;28680;45.642;13.756;2023-06-24T05:02:24;101361.22;;;26.08;100.00
35647;BME280;28680;45.642;13.756;2023-06-24T05:04:52;101356.41;;;26.37;100.00
35647;BME280;28680;45.642;13.756;2023-06-24T05:07:18;101361.09;;;26.75;100.00
35647;BME280;28680;45.642;13.756;2023-06-24T05:09:48;101368.81;;;26.44;100.00
35647;BME280;28680;45.642;13.756;2023-06-24T05:12:14;101379.41;;;26.33;100.00
35647;BME280;28680;45.642;13.756;2023-06-24T05:14:40;101404.88;;;26.03;100.00
35647;BME280;28680;45.642;13.756;2023-06-24T05:17:06;101397.03;;;26.22;100.00
35647;BME280;28680;45.642;13.756;2023-06-24T05:19:32;101397.00;;;26.29;100.00
35647;BME280;28680;45.642;13.756;2023-06-24T05:21:58;101401.72;;;26.53;100.00
35647;BME280;28680;45.642;13.756;2023-06-24T05:24:24;101399.06;;;26.60;100.00
35647;BME280;28680;45.642;13.756;2023-06-24T05:26:51;101399.47;;;26.63;100.00
35647;BME280;28680;45.642;13.756;2023-06-24T05:29:17;101410.44;;;26.69;100.00
35647;BME280;28680;45.642;13.756;2023-06-24T05:31:44;101415.41;;;26.72;100.00
35647;BME280;28680;45.642;13.756;2023-06-24T05:34:10;101412.88;;;26.83;100.00
35647;BME280;28680;45.642;13.756;2023-06-24T05:36:36;101428.41;;;26.88;100.00
35647;BME280;28680;45.642;13.756;2023-06-24T05:39:02;101431.31;;;26.87;100.00
35647;BME280;28680;45.642;13.756;2023-06-24T05:41:28;101425.56;;;26.56;100.00
35647;BME280;28680;45.642;13.756;2023-06-24T05:44:07;101435.50;;;26.36;100.00
35647;BME280;28680;45.642;13.756;2023-06-24T05:46:34;101425.56;;;26.63;100.00
35647;BME280;28680;45.642;13.756;2023-06-24T05:49:00;101437.75;;;26.39;100.00
35647;BME280;28680;45.642;13.756;2023-06-24T05:51:26;101427.19;;;26.77;100.00
35647;BME280;28680;45.642;13.756;2023-06-24T05:53:52;101431.53;;;26.52;100.00
35647;BME280;28680;45.642;13.756;2023-06-24T05:56:20;101446.25;;;26.69;100.00
35647;BME280;28680;45.642;13.756;2023-06-24T05:58:46;101440.84;;;26.82;100.00
35647;BME280;28680;45.642;13.756;2023-06-24T06:01:12;101442.88;;;27.00;100.00
35647;BME280;28680;45.642;13.756;2023-06-24T06:03:38;101451.44;;;26.64;100.00
35647;BME280;28680;45.642;13.756;2023-06-24T06:06:04;101453.44;;;26.95;100.00
35647;BME280;28680;45.642;13.756;2023-06-24T06:08:31;101442.66;;;26.95;100.00
35647;BME280;28680;45.642;13.756;2023-06-24T06:10:56;101447.06;;;26.76;100.00
35647;BME280;28680;45.642;13.756;2023-06-24T06:13:22;101449.69;;;27.03;100.00
35647;BME280;28680;45.642;13.756;2023-06-24T06:15:48;101454.88;;;27.04;100.00
35647;BME280;28680;45.642;13.756;2023-06-24T06:18:14;101452.97;;;27.12;100.00
35647;BME280;28680;45.642;13.756;2023-06-24T06:20:40;101446.41;;;26.94;100.00
35647;BME280;28680;45.642;13.756;2023-06-24T06:23:07;101457.56;;;27.04;100.00
35647;BME280;28680;45.642;13.756;2023-06-24T06:25:33;101455.75;;;26.85;100.00
35647;BME280;28680;45.642;13.756;2023-06-24T06:27:59;101460.81;;;27.20;100.00
35647;BME280;28680;45.642;13.756;2023-06-24T06:30:25;101463.91;;;27.23;100.00
35647;BME280;28680;45.642;13.756;2023-06-24T06:32:50;101457.06;;;27.34;100.00
35647;BME280;28680;45.642;13.756;2023-06-24T06:35:16;101458.72;;;27.35;100.00
35647;BME280;28680;45.642;13.756;2023-06-24T06:37:42;101461.03;;;27.32;100.00
35647;BME280;28680;45.642;13.756;2023-06-24T06:40:09;101460.13;;;27.45;100.00
35647;BME280;28680;45.642;13.756;2023-06-24T06:42:35;101460.03;;;27.58;100.00
35647;BME280;28680;45.642;13.756;2023-06-24T06:45:01;101448.19;;;27.27;100.00
35647;BME280;28680;45.642;13.756;2023-06-24T06:47:27;101453.56;;;27.27;100.00
35647;BME280;28680;45.642;13.756;2023-06-24T06:49:53;101454.44;;;27.59;100.00
35647;BME280;28680;45.642;13.756;2023-06-24T06:52:18;101454.03;;;27.63;100.00
35647;BME280;28680;45.642;13.756;2023-06-24T06:54:44;101453.34;;;27.74;100.00
35647;BME280;28680;45.642;13.756;2023-06-24T06:57:10;101452.06;;;27.76;100.00
35647;BME280;28680;45.642;13.756;2023-06-24T06:59:36;101452.31;;;27.68;100.00
35647;BME280;28680;45.642;13.756;2023-06-24T07:02:02;101454.94;;;27.81;100.00
35647;BME280;28680;45.642;13.756;2023-06-24T07:04:28;101452.63;;;27.85;100.00
35647;BME280;28680;45.642;13.756;2023-06-24T07:06:56;101445.38;;;27.92;100.00
35647;BME280;28680;45.642;13.756;2023-06-24T07:09:22;101441.34;;;27.70;100.00
35647;BME280;28680;45.642;13.756;2023-06-24T07:11:48;101442.94;;;27.77;100.00
35647;BME280;28680;45.642;13.756;2023-06-24T07:14:14;101432.53;;;27.81;100.00
35647;BME280;28680;45.642;13.756;2023-06-24T07:16:40;101433.28;;;27.63;100.00
35647;BME280;28680;45.642;13.756;2023-06-24T07:19:06;101431.69;;;27.80;100.00
35647;BME280;28680;45.642;13.756;2023-06-24T07:21:32;101427.31;;;27.86;100.00
35647;BME280;28680;45.642;13.756;2023-06-24T07:23:58;101426.88;;;27.96;100.00
35647;BME280;28680;45.642;13.756;2023-06-24T07:26:23;101422.22;;;28.03;100.00
35647;BME280;28680;45.642;13.756;2023-06-24T07:28:49;101420.78;;;28.07;100.00
35647;BME280;28680;45.642;13.756;2023-06-24T07:31:15;101420.47;;;28.15;100.00
35647;BME280;28680;45.642;13.756;2023-06-24T07:33:41;101415.00;;;28.22;100.00
35647;BME280;28680;45.642;13.756;2023-06-24T07:36:07;101411.09;;;28.18;100.00
35647;BME280;28680;45.642;13.756;2023-06-24T07:38:33;101404.59;;;28.26;99.58
35647;BME280;28680;45.642;13.756;2023-06-24T07:40:59;101406.28;;;28.27;98.89
35647;BME280;28680;45.642;13.756;2023-06-24T07:43:25;101411.59;;;28.33;98.99
35647;BME280;28680;45.642;13.756;2023-06-24T07:45:51;101405.31;;;28.39;98.42
35647;BME280;28680;45.642;13.756;2023-06-24T07:48:17;101417.69;;;28.47;99.12
35647;BME280;28680;45.642;13.756;2023-06-24T07:50:43;101414.34;;;28.52;99.30
35647;BME280;28680;45.642;13.756;2023-06-24T07:53:09;101398.53;;;28.55;100.00
35647;BME280;28680;45.642;13.756;2023-06-24T07:55:35;101398.91;;;28.59;100.00
35647;BME280;28680;45.642;13.756;2023-06-24T07:58:01;101405.94;;;28.60;96.33
35647;BME280;28680;45.642;13.756;2023-06-24T08:00:28;101402.38;;;28.66;96.61
35647;BME280;28680;45.642;13.756;2023-06-24T08:02:54;101398.38;;;28.69;94.62
35647;BME280;28680;45.642;13.756;2023-06-24T08:05:21;101413.09;;;28.73;93.43
35647;BME280;28680;45.642;13.756;2023-06-24T08:07:47;101406.06;;;28.72;90.84
35647;BME280;28680;45.642;13.756;2023-06-24T08:10:13;101401.25;;;28.74;88.58
35647;BME280;28680;45.642;13.756;2023-06-24T08:12:39;101398.56;;;28.74;87.20
35647;BME280;28680;45.642;13.756;2023-06-24T08:15:05;101408.38;;;28.87;91.27
35647;BME280;28680;45.642;13.756;2023-06-24T08:17:31;101396.88;;;28.91;91.39
35647;BME280;28680;45.642;13.756;2023-06-24T08:19:57;101400.28;;;28.87;89.57
35647;BME280;28680;45.642;13.756;2023-06-24T08:22:23;101389.00;;;28.90;88.24
35647;BME280;28680;45.642;13.756;2023-06-24T08:24:49;101386.44;;;28.95;88.47
35647;BME280;28680;45.642;13.756;2023-06-24T08:27:15;101387.19;;;29.02;91.86
35647;BME280;28680;45.642;13.756;2023-06-24T08:29:41;101386.97;;;29.04;92.75
35647;BME280;28680;45.642;13.756;2023-06-24T08:32:07;101390.13;;;29.01;90.00
35647;BME280;28680;45.642;13.756;2023-06-24T08:34:33;101381.09;;;29.07;88.69
35647;BME280;28680;45.642;13.756;2023-06-24T08:36:59;101383.75;;;29.13;88.64
35647;BME280;28680;45.642;13.756;2023-06-24T08:39:25;101377.66;;;29.18;87.84
35647;BME280;28680;45.642;13.756;2023-06-24T08:41:51;101374.34;;;29.16;85.69
35647;BME280;28680;45.642;13.756;2023-06-24T08:44:17;101386.84;;;29.17;86.11
35647;BME280;28680;45.642;13.756;2023-06-24T08:46:43;101387.44;;;29.19;87.16
35647;BME280;28680;45.642;13.756;2023-06-24T08:54:23;101378.38;;;29.25;90.79
35647;BME280;28680;45.642;13.756;2023-06-24T08:56:50;101367.25;;;29.33;89.95
35647;BME280;28680;45.642;13.756;2023-06-24T08:59:16;101359.88;;;29.41;87.53
35647;BME280;28680;45.642;13.756;2023-06-24T09:01:50;101362.13;;;29.44;87.60
35647;BME280;28680;45.642;13.756;2023-06-24T09:04:16;101368.72;;;29.48;92.52
35647;BME280;28680;45.642;13.756;2023-06-24T09:06:42;101367.19;;;29.52;91.68
35647;BME280;28680;45.642;13.756;2023-06-24T09:09:21;101371.44;;;29.60;86.36
35647;BME280;28680;45.642;13.756;2023-06-24T09:11:58;101373.47;;;29.64;91.45
35647;BME280;28680;45.642;13.756;2023-06-24T09:14:26;101377.75;;;29.84;81.18
35647;BME280;28680;45.642;13.756;2023-06-24T09:16:57;101380.94;;;29.92;81.63
35647;BME280;28680;45.642;13.756;2023-06-24T09:19:26;101388.13;;;29.99;82.20
35647;BME280;28680;45.642;13.756;2023-06-24T09:22:06;101378.59;;;30.20;77.08
35647;BME280;28680;45.642;13.756;2023-06-24T09:24:34;101382.03;;;30.39;77.79
35647;BME280;28680;45.642;13.756;2023-06-24T09:27:01;101383.91;;;30.38;81.02
35647;BME280;28680;45.642;13.756;2023-06-24T09:29:28;101387.56;;;30.44;86.74
35647;BME280;28680;45.642;13.756;2023-06-24T10:41:54;101358.94;;;31.75;67.89
35647;BME280;28680;45.642;13.756;2023-06-24T10:44:20;101360.53;;;32.27;62.55
35647;BME280;28680;45.642;13.756;2023-06-24T10:46:54;101355.41;;;32.69;58.76
35647;BME280;28680;45.642;13.756;2023-06-24T10:49:20;101349.09;;;32.63;60.67
35647;BME280;28680;45.642;13.756;2023-06-24T10:51:46;101337.81;;;32.55;63.89
35647;BME280;28680;45.642;13.756;2023-06-24T10:54:12;101340.94;;;32.86;56.58
35647;BME280;28680;45.642;13.756;2023-06-24T10:56:38;101344.28;;;32.71;60.26
35647;BME280;28680;45.642;13.756;2023-06-24T10:59:04;101344.91;;;32.56;59.02
35647;BME280;28680;45.642;13.756;2023-06-24T11:01:30;101334.53;;;32.53;61.71
35647;BME280;28680;45.642;13.756;2023-06-24T11:03:56;101333.97;;;32.51;62.86
35647;BME280;28680;45.642;13.756;2023-06-24T11:06:22;101330.16;;;32.69;59.85
35647;BME280;28680;45.642;13.756;2023-06-24T11:08:48;101330.66;;;32.66;62.02
35647;BME280;28680;45.642;13.756;2023-06-24T11:11:20;101337.13;;;32.87;59.08
35647;BME280;28680;45.642;13.756;2023-06-24T11:13:49;101329.81;;;32.65;63.05
35647;BME280;28680;45.642;13.756;2023-06-24T11:16:21;101330.41;;;32.67;64.91
35647;BME280;28680;45.642;13.756;2023-06-24T11:18:47;101324.97;;;33.16;57.30
35647;BME280;28680;45.642;13.756;2023-06-24T11:21:13;101323.88;;;33.17;58.07
35647;BME280;28680;45.642;13.756;2023-06-24T11:23:45;101323.63;;;33.19;60.67
35647;BME280;28680;45.642;13.756;2023-06-24T11:26:11;101322.50;;;32.93;63.72
35647;BME280;28680;45.642;13.756;2023-06-24T11:28:38;101322.19;;;32.89;64.21
35647;BME280;28680;45.642;13.756;2023-06-24T11:31:07;101318.03;;;32.81;64.33
35647;BME280;28680;45.642;13.756;2023-06-24T11:33:35;101320.19;;;32.79;66.32
35647;BME280;28680;45.642;13.756;2023-06-24T11:36:02;101311.66;;;32.49;75.67
35647;BME280;28680;45.642;13.756;2023-06-24T11:38:34;101304.53;;;32.64;65.28
35647;BME280;28680;45.642;13.756;2023-06-24T11:41:01;101311.41;;;32.50;73.45
35647;BME280;28680;45.642;13.756;2023-06-24T11:43:27;101318.16;;;32.48;79.11
35647;BME280;28680;45.642;13.756;2023-06-24T11:45:53;101308.19;;;32.31;100.00
35647;BME280;28680;45.642;13.756;2023-06-24T11:48:22;101307.75;;;32.39;100.00
35647;BME280;28680;45.642;13.756;2023-06-24T11:50:54;101308.56;;;32.01;100.00
35647;BME280;28680;45.642;13.756;2023-06-24T11:53:30;101302.50;;;32.33;100.00
35647;BME280;28680;45.642;13.756;2023-06-24T11:55:59;101306.19;;;32.93;65.11
35647;BME280;28680;45.642;13.756;2023-06-24T11:58:35;101299.13;;;33.19;79.98
35647;BME280;28680;45.642;13.756;2023-06-24T12:01:09;101297.13;;;32.82;89.84
35647;BME280;28680;45.642;13.756;2023-06-24T12:06:22;101297.81;;;32.28;83.79
35647;BME280;28680;45.642;13.756;2023-06-24T12:08:57;101300.09;;;32.36;83.15
35647;BME280;28680;45.642;13.756;2023-06-24T12:11:23;101298.78;;;32.39;71.10
35647;BME280;28680;45.642;13.756;2023-06-24T12:13:54;101293.25;;;32.78;70.21
35647;BME280;28680;45.642;13.756;2023-06-24T12:16:20;101297.06;;;32.55;81.60
35647;BME280;28680;45.642;13.756;2023-06-24T12:18:48;101295.81;;;32.62;72.52
35647;BME280;28680;45.642;13.756;2023-06-24T12:21:14;101291.78;;;32.65;75.44
35647;BME280;28680;45.642;13.756;2023-06-24T12:23:40;101292.34;;;32.45;72.04
35647;BME280;28680;45.642;13.756;2023-06-24T12:26:06;101288.34;;;32.53;76.99
35647;BME280;28680;45.642;13.756;2023-06-24T12:28:32;101293.53;;;32.54;74.79
35647;BME280;28680;45.642;13.756;2023-06-24T12:30:58;101290.75;;;32.71;67.92
35647;BME280;28680;45.642;13.756;2023-06-24T12:33:23;101289.06;;;32.65;74.58
35647;BME280;28680;45.642;13.756;2023-06-24T12:35:49;101287.00;;;32.77;73.12
35647;BME280;28680;45.642;13.756;2023-06-24T12:38:15;101290.44;;;32.68;76.40
35647;BME280;28680;45.642;13.756;2023-06-24T12:40:42;101288.44;;;32.85;70.83
35647;BME280;28680;45.642;13.756;2023-06-24T12:43:08;101287.84;;;33.05;64.11
35647;BME280;28680;45.642;13.756;2023-06-24T12:45:34;101288.69;;;32.83;73.79
35647;BME280;28680;45.642;13.756;2023-06-24T12:48:00;101281.38;;;32.84;67.41
35647;BME280;28680;45.642;13.756;2023-06-24T12:50:26;101293.31;;;32.83;69.12
35647;BME280;28680;45.642;13.756;2023-06-24T12:52:51;101296.75;;;32.73;71.29
35647;BME280;28680;45.642;13.756;2023-06-24T12:55:17;101288.69;;;32.83;71.34
35647;BME280;28680;45.642;13.756;2023-06-24T12:57:43;101283.56;;;32.87;76.62
35647;BME280;28680;45.642;13.756;2023-06-24T13:00:10;101290.34;;;32.85;75.91
35647;BME280;28680;45.642;13.756;2023-06-24T13:02:37;101302.50;;;32.77;74.45
35647;BME280;28680;45.642;13.756;2023-06-24T13:05:04;101304.75;;;32.85;65.39
35647;BME280;28680;45.642;13.756;2023-06-24T13:07:30;101314.88;;;32.90;65.60
35647;BME280;28680;45.642;13.756;2023-06-24T13:09:57;101305.06;;;32.89;76.78
35647;BME280;28680;45.642;13.756;2023-06-24T13:12:24;101307.69;;;32.78;76.96
35647;BME280;28680;45.642;13.756;2023-06-24T13:14:50;101308.88;;;32.88;67.39
35647;BME280;28680;45.642;13.756;2023-06-24T13:17:19;101303.72;;;32.64;81.57
35647;BME280;28680;45.642;13.756;2023-06-24T13:19:45;101307.31;;;32.70;77.42
35647;BME280;28680;45.642;13.756;2023-06-24T13:22:11;101300.59;;;32.77;72.60
35647;BME280;28680;45.642;13.756;2023-06-24T13:24:37;101298.66;;;32.73;75.31
35647;BME280;28680;45.642;13.756;2023-06-24T13:27:04;101304.41;;;32.54;82.75
35647;BME280;28680;45.642;13.756;2023-06-24T13:29:30;101317.06;;;32.66;80.64
35647;BME280;28680;45.642;13.756;2023-06-24T13:31:57;101315.69;;;32.90;67.98
35647;BME280;28680;45.642;13.756;2023-06-24T13:34:23;101303.41;;;32.60;79.49
35647;BME280;28680;45.642;13.756;2023-06-24T13:36:49;101302.66;;;32.65;74.39
35647;BME280;28680;45.642;13.756;2023-06-24T13:39:15;101303.38;;;32.82;68.59
35647;BME280;28680;45.642;13.756;2023-06-24T13:41:44;101306.72;;;32.90;71.45
35647;BME280;28680;45.642;13.756;2023-06-24T13:44:10;101303.63;;;32.81;78.19
35647;BME280;28680;45.642;13.756;2023-06-24T13:46:36;101296.50;;;32.53;77.27
35647;BME280;28680;45.642;13.756;2023-06-24T13:49:02;101286.72;;;32.52;81.33
35647;BME280;28680;45.642;13.756;2023-06-24T13:51:28;101308.44;;;32.52;74.82
35647;BME280;28680;45.642;13.756;2023-06-24T13:53:55;101306.50;;;32.69;75.88
35647;BME280;28680;45.642;13.756;2023-06-24T13:56:23;101303.88;;;32.79;71.54
35647;BME280;28680;45.642;13.756;2023-06-24T13:58:50;101311.72;;;32.76;70.48
35647;BME280;28680;45.642;13.756;2023-06-24T14:01:17;101311.16;;;32.74;77.08
35647;BME280;28680;45.642;13.756;2023-06-24T14:03:50;101304.13;;;32.78;75.55
35647;BME280;28680;45.642;13.756;2023-06-24T14:06:27;101309.19;;;32.91;71.66
35647;BME280;28680;45.642;13.756;2023-06-24T14:08:53;101306.56;;;32.74;73.88